Time;durP1;ratioP1;P1;durP2;ratioP2;P2;SDS_P1;SDS_P2;PMS_P1;PMS_P2;Temp;Humidity;BMP_temperature;BMP_pressure;BME280_temperature;BME280_humidity;BME280_pressure;Samples;Min_cycle;Max_cycle;Signal;HPM_P1;HPM_P2
2021/12/16 00:01:48;;;;;;;;;25.50;22.00;;;;;-146.25;100.00;57879.81;5079183;28;45378;-71
2021/12/16 00:31:51;;;;;;;;;31.75;24.75;;;;;-146.25;100.00;57879.81;5078338;28;45460;-70
2021/12/16 00:34:20;;;;;;;;;26.50;22.00;;;;;-146.25;100.00;57879.81;5078962;28;45374;-70
2021/12/16 00:36:47;;;;;;;;;28.25;25.75;;;;;-146.25;100.00;57879.81;5078335;27;45373;-70
2021/12/16 00:39:21;;;;;;;;;30.25;25.25;;;;;-146.25;100.00;57879.81;5077809;27;45367;-70
2021/12/16 00:41:49;;;;;;;;;29.00;26.75;;;;;-146.25;100.00;57879.81;5078057;27;45432;-70
2021/12/16 00:44:36;;;;;;;;;30.50;27.75;;;;;-146.25;100.00;57879.81;5078452;27;45524;-70
2021/12/16 00:49:38;;;;;;;;;30.50;25.75;;;;;-146.25;100.00;57879.81;5077996;27;45480;-70
2021/12/16 00:55:13;;;;;;;;;23.50;21.00;;;;;-146.25;100.00;57879.81;5078834;28;45463;-73
2021/12/16 00:57:41;;;;;;;;;25.75;21.00;;;;;-146.25;100.00;57879.81;5078081;27;45348;-70
2021/12/16 01:00:12;;;;;;;;;29.00;26.00;;;;;-146.25;100.00;57879.81;5078079;27;45321;-70
2021/12/16 01:47:13;;;;;;;;;31.75;29.50;;;;;-146.25;100.00;57879.81;5090595;27;45352;-69
2021/12/16 01:55:20;;;;;;;;;23.50;20.50;;;;;-146.25;100.00;57879.81;5077230;27;45467;-69
2021/12/16 01:57:40;;;;;;;;;24.25;21.75;;;;;-146.25;100.00;57879.81;5075954;27;45369;-69
2021/12/16 02:00:44;;;;;;;;;23.00;21.00;;;;;-146.25;100.00;57879.81;5078860;27;45617;-69
2021/12/16 02:03:10;;;;;;;;;25.25;23.75;;;;;-146.25;100.00;57879.81;5080535;27;45499;-70
2021/12/16 02:10:43;;;;;;;;;28.25;21.75;;;;;-146.25;100.00;57879.81;5080867;28;45430;-71
2021/12/16 02:32:09;;;;;;;;;22.00;18.75;;;;;-146.25;100.00;57879.81;5080765;27;45312;-69
2021/12/16 02:34:59;;;;;;;;;19.25;19.00;;;;;-146.25;100.00;57879.81;5080296;27;45489;-69
2021/12/16 02:37:29;;;;;;;;;21.50;19.25;;;;;-146.25;100.00;57879.81;5080668;27;45257;-69
2021/12/16 02:39:55;;;;;;;;;19.50;18.75;;;;;-146.25;100.00;57879.81;5080456;27;45567;-69
2021/12/16 02:42:33;;;;;;;;;22.00;21.00;;;;;-146.25;100.00;57879.81;5080366;28;45471;-69
2021/12/16 02:50:19;;;;;;;;;24.75;21.75;;;;;-146.25;100.00;57879.81;5080079;28;45463;-69
2021/12/16 02:52:45;;;;;;;;;21.25;17.50;;;;;-146.25;100.00;57879.81;5080273;27;45321;-69
2021/12/16 02:55:15;;;;;;;;;23.25;19.50;;;;;-146.25;100.00;57879.81;5079464;27;45554;-69
2021/12/16 02:57:49;;;;;;;;;30.00;24.25;;;;;-146.25;100.00;57879.81;5079891;27;45356;-69
2021/12/16 03:00:16;;;;;;;;;22.75;21.50;;;;;-146.25;100.00;57879.81;5079891;27;45451;-69
2021/12/16 03:02:45;;;;;;;;;22.75;18.50;;;;;-146.25;100.00;57879.81;5080023;27;45289;-69
2021/12/16 03:05:11;;;;;;;;;22.00;20.75;;;;;-146.25;100.00;57879.81;5079822;27;45432;-69
2021/12/16 03:07:37;;;;;;;;;26.75;24.25;;;;;-146.25;100.00;57879.81;5079637;27;45291;-70
2021/12/16 03:13:01;;;;;;;;;25.00;21.25;;;;;-146.25;100.00;57879.81;5078863;28;45570;-69
2021/12/16 03:16:24;;;;;;;;;24.00;20.25;;;;;-146.25;100.00;57879.81;5079585;27;45499;-70
2021/12/16 03:19:18;;;;;;;;;24.75;21.25;;;;;-146.25;100.00;57879.81;5078176;27;45200;-69
2021/12/16 03:21:46;;;;;;;;;26.00;21.25;;;;;-146.25;100.00;57879.81;5079195;27;45973;-69
2021/12/16 03:37:46;;;;;;;;;22.75;21.00;;;;;-146.25;100.00;57879.81;5079334;27;45449;-70
2021/12/16 03:40:14;;;;;;;;;22.00;21.50;;;;;-146.25;100.00;57879.81;5079247;27;45360;-69
2021/12/16 03:42:51;;;;;;;;;17.75;16.25;;;;;-146.25;100.00;57879.81;5079373;27;45310;-70
2021/12/16 03:48:20;;;;;;;;;21.75;16.50;;;;;-146.25;100.00;57879.81;5078872;28;45866;-69
2021/12/16 03:50:46;;;;;;;;;18.00;14.50;;;;;-146.25;100.00;57879.81;5079012;27;45487;-69
2021/12/16 03:53:16;;;;;;;;;20.25;18.50;;;;;-146.25;100.00;57879.81;5079141;27;45471;-69
2021/12/16 03:55:42;;;;;;;;;19.00;15.00;;;;;-146.25;100.00;57879.81;5079366;28;45562;-69
2021/12/16 03:58:08;;;;;;;;;15.00;14.00;;;;;-146.25;100.00;57879.81;5078953;28;46159;-69
2021/12/16 04:00:45;;;;;;;;;21.50;15.50;;;;;-146.25;100.00;57879.81;5078674;27;45417;-69
2021/12/16 04:03:12;;;;;;;;;17.50;15.25;;;;;-146.25;100.00;57879.81;5079041;27;45464;-68
2021/12/16 04:05:39;;;;;;;;;14.50;13.00;;;;;-146.25;100.00;57879.81;5078735;27;45403;-69
2021/12/16 04:08:05;;;;;;;;;36.25;32.25;;;;;-146.25;100.00;57879.81;5078770;27;45488;-69
2021/12/16 04:11:00;;;;;;;;;27.25;24.00;;;;;-146.25;100.00;57879.81;5079179;27;45241;-69
2021/12/16 04:13:25;;;;;;;;;17.00;15.50;;;;;-146.25;100.00;57879.81;5078660;27;45258;-69
2021/12/16 04:15:51;;;;;;;;;22.00;20.25;;;;;-146.25;100.00;57879.81;5078835;27;45598;-69
2021/12/16 04:18:17;;;;;;;;;21.25;17.25;;;;;-146.25;100.00;57879.81;5078480;28;45371;-69
2021/12/16 04:20:43;;;;;;;;;22.25;19.00;;;;;-146.25;100.00;57879.81;5078749;28;45350;-69
2021/12/16 04:23:11;;;;;;;;;14.50;14.00;;;;;-146.25;100.00;57879.81;5078349;27;45567;-69
2021/12/16 04:25:42;;;;;;;;;17.75;15.50;;;;;-146.25;100.00;57879.81;5078875;27;45392;-69
2021/12/16 04:28:16;;;;;;;;;18.25;18.00;;;;;-146.25;100.00;57879.81;5078268;27;46435;-70
2021/12/16 04:30:42;;;;;;;;;22.25;18.75;;;;;-146.25;100.00;57879.81;5078574;27;45479;-69
2021/12/16 04:33:08;;;;;;;;;15.25;14.50;;;;;-146.25;100.00;57879.81;5078463;27;45413;-70
2021/12/16 04:35:35;;;;;;;;;19.75;16.50;;;;;-146.25;100.00;57879.81;5078925;28;45175;-69
2021/12/16 04:38:01;;;;;;;;;25.00;18.75;;;;;-146.25;100.00;57879.81;5078429;28;45479;-69
2021/12/16 04:40:28;;;;;;;;;14.00;13.00;;;;;-146.25;100.00;57879.81;5078301;27;45495;-69
2021/12/16 04:42:59;;;;;;;;;17.25;15.25;;;;;-146.25;100.00;57879.81;5078317;27;45476;-69
2021/12/16 04:45:26;;;;;;;;;14.75;13.75;;;;;-146.25;100.00;57879.81;5078478;27;45484;-69
2021/12/16 04:47:52;;;;;;;;;14.50;13.00;;;;;-146.25;100.00;57879.81;5078191;27;45345;-69
2021/12/16 04:50:18;;;;;;;;;21.00;18.00;;;;;-146.25;100.00;57879.81;5078002;28;45310;-69
2021/12/16 04:52:45;;;;;;;;;16.50;14.25;;;;;-146.25;100.00;57879.81;5078223;27;45404;-69
2021/12/16 04:55:12;;;;;;;;;15.75;13.50;;;;;-146.25;100.00;57879.81;5078288;27;45449;-69
2021/12/16 04:57:38;;;;;;;;;15.75;13.25;;;;;-146.25;100.00;57879.81;5077880;28;46212;-69
2021/12/16 05:00:10;;;;;;;;;21.25;17.00;;;;;-146.25;100.00;57879.81;5078417;28;45360;-69
2021/12/16 05:02:36;;;;;;;;;15.50;14.00;;;;;-146.25;100.00;57879.81;5078593;27;45318;-69
2021/12/16 05:05:03;;;;;;;;;16.75;15.00;;;;;-146.25;100.00;57879.81;5078427;27;45527;-69
2021/12/16 05:07:29;;;;;;;;;18.00;12.50;;;;;-146.25;100.00;57879.81;5077922;28;45352;-69
2021/12/16 05:10:06;;;;;;;;;16.50;14.00;;;;;-146.25;100.00;57879.81;5077150;27;45524;-69
2021/12/16 05:12:38;;;;;;;;;16.75;15.25;;;;;-146.25;100.00;57879.81;5077997;27;45480;-70
2021/12/16 05:15:08;;;;;;;;;13.75;13.25;;;;;-146.25;100.00;57879.81;5078094;27;45346;-68
2021/12/16 05:17:41;;;;;;;;;16.75;13.75;;;;;-146.25;100.00;57879.81;5077926;27;46168;-68
2021/12/16 05:20:10;;;;;;;;;19.25;15.25;;;;;-146.25;100.00;57879.81;5077437;27;45471;-68
2021/12/16 05:28:14;;;;;;;;;16.50;15.75;;;;;-146.25;100.00;57879.81;5068727;28;45764;-69
2021/12/16 05:30:40;;;;;;;;;17.50;15.25;;;;;-146.25;100.00;57879.81;5077562;27;45527;-68
2021/12/16 05:33:06;;;;;;;;;13.75;13.50;;;;;-146.25;100.00;57879.81;5077756;27;45313;-68
2021/12/16 05:35:32;;;;;;;;;20.50;18.50;;;;;-146.25;100.00;57879.81;5076588;28;45532;-68
2021/12/16 05:37:58;;;;;;;;;21.00;18.00;;;;;-146.25;100.00;57879.81;5076035;28;45978;-73
2021/12/16 05:40:26;;;;;;;;;36.50;31.25;;;;;-146.25;100.00;57879.81;5077031;28;45544;-68
2021/12/16 05:43:01;;;;;;;;;28.50;24.00;;;;;-146.25;100.00;57879.81;5077206;28;45560;-69
2021/12/16 05:45:27;;;;;;;;;31.75;27.25;;;;;-146.25;100.00;57879.81;5077086;28;45411;-69
2021/12/16 05:47:56;;;;;;;;;20.50;18.00;;;;;-146.25;100.00;57879.81;5076616;27;46131;-68
2021/12/16 05:50:23;;;;;;;;;17.50;14.00;;;;;-146.25;100.00;57879.81;5076308;27;45373;-68
2021/12/16 05:52:49;;;;;;;;;15.75;13.50;;;;;-146.25;100.00;57879.81;5073923;28;45319;-69
2021/12/16 05:55:16;;;;;;;;;27.25;20.50;;;;;-146.25;100.00;57879.81;5076359;28;45224;-68
2021/12/16 05:57:43;;;;;;;;;55.75;45.75;;;;;-146.25;100.00;57879.81;5076118;27;46274;-69
2021/12/16 06:00:32;;;;;;;;;29.00;26.25;;;;;-146.25;100.00;57879.81;5073795;28;45329;-69
2021/12/16 06:02:58;;;;;;;;;19.50;17.00;;;;;-146.25;100.00;57879.81;5075055;28;45461;-69
2021/12/16 06:05:25;;;;;;;;;21.00;21.00;;;;;-146.25;100.00;57879.81;5076349;27;45555;-69
2021/12/16 06:07:52;;;;;;;;;82.00;61.00;;;;;-146.25;100.00;57879.81;5076121;27;45468;-69
2021/12/16 06:13:04;;;;;;;;;54.25;43.50;;;;;-146.25;100.00;57879.81;5077105;28;45373;-69
2021/12/16 06:26:44;;;;;;;;;19.75;17.25;;;;;-146.25;100.00;57879.81;5077035;28;45227;-68
2021/12/16 06:29:10;;;;;;;;;20.75;20.50;;;;;-146.25;100.00;57879.81;5076684;27;45353;-68
2021/12/16 06:31:36;;;;;;;;;19.00;17.25;;;;;-146.25;100.00;57879.81;5077137;27;45568;-68
2021/12/16 06:34:02;;;;;;;;;17.50;16.25;;;;;-146.25;100.00;57879.81;5076485;27;45698;-69
2021/12/16 06:36:28;;;;;;;;;15.75;15.00;;;;;-146.25;100.00;57879.81;5076971;27;45315;-68
2021/12/16 06:38:54;;;;;;;;;20.50;20.50;;;;;-146.25;100.00;57879.81;5076557;28;45543;-69
2021/12/16 06:41:20;;;;;;;;;21.25;19.00;;;;;-146.25;100.00;57879.81;5076622;27;45383;-68
2021/12/16 06:43:47;;;;;;;;;19.75;16.25;;;;;-146.25;100.00;57879.81;5076704;27;45607;-68
2021/12/16 06:46:16;;;;;;;;;20.25;16.75;;;;;-146.25;100.00;57879.81;5078451;28;45480;-68
2021/12/16 06:48:45;;;;;;;;;18.75;16.25;;;;;-146.25;100.00;57879.81;5079915;27;46366;-69
2021/12/16 06:51:19;;;;;;;;;18.75;18.75;;;;;-146.25;100.00;57879.81;5080302;27;45327;-68
2021/12/16 06:54:11;;;;;;;;;19.00;15.75;;;;;-146.25;100.00;57879.81;5080082;27;45368;-68
2021/12/16 06:56:45;;;;;;;;;17.75;16.25;;;;;-146.25;100.00;57879.81;5079494;27;45188;-68
2021/12/16 06:59:24;;;;;;;;;18.75;18.75;;;;;-146.25;100.00;57879.81;5080172;28;45313;-68
2021/12/16 07:02:07;;;;;;;;;50.25;42.00;;;;;-146.25;100.00;57879.81;5080050;28;45436;-68
2021/12/16 07:04:35;;;;;;;;;26.75;25.50;;;;;-146.25;100.00;57879.81;5079796;27;45306;-69
2021/12/16 07:07:01;;;;;;;;;23.25;20.75;;;;;-146.25;100.00;57879.81;5080045;27;45508;-69
2021/12/16 07:09:28;;;;;;;;;29.50;24.50;;;;;-146.25;100.00;57879.81;5078611;27;45443;-68
2021/12/16 07:11:57;;;;;;;;;107.33;84.67;;;;;-146.25;100.00;57879.81;5078807;27;45458;-68
2021/12/16 07:14:35;;;;;;;;;101.67;81.67;;;;;-146.25;100.00;57879.81;5078839;28;45519;-69
2021/12/16 07:17:03;;;;;;;;;25.25;22.50;;;;;-146.25;100.00;57879.81;5078778;27;45417;-68
2021/12/16 07:19:29;;;;;;;;;22.25;20.75;;;;;-146.25;100.00;57879.81;5078810;27;46402;-70
2021/12/16 07:21:55;;;;;;;;;36.50;33.75;;;;;-146.25;100.00;57879.81;5078529;28;45669;-70
2021/12/16 07:24:21;;;;;;;;;47.25;41.25;;;;;-146.25;100.00;57879.81;5078743;27;45402;-75
2021/12/16 07:26:47;;;;;;;;;97.67;68.33;;;;;-146.25;100.00;57879.81;5077490;27;45916;-69
2021/12/16 07:29:14;;;;;;;;;55.00;44.00;;;;;-146.25;100.00;57879.81;5075358;27;46067;-71
2021/12/16 07:31:40;;;;;;;;;61.75;48.75;;;;;-146.25;100.00;57879.81;5074525;27;45519;-71
2021/12/16 07:34:09;;;;;;;;;28.00;26.00;;;;;-146.25;100.00;57879.81;5072018;28;46357;-71
2021/12/16 07:36:37;;;;;;;;;36.75;35.00;;;;;-146.25;100.00;57879.81;5077773;27;46323;-69
2021/12/16 07:39:06;;;;;;;;;84.25;60.75;;;;;-146.25;100.00;57879.81;5078060;27;46284;-69
2021/12/16 07:41:33;;;;;;;;;100.67;81.67;;;;;-146.25;100.00;57879.81;5078044;28;45239;-69
2021/12/16 07:44:10;;;;;;;;;37.50;34.75;;;;;-146.25;100.00;57879.81;5077822;27;45718;-70
2021/12/16 07:46:52;;;;;;;;;104.67;87.33;;;;;-146.25;100.00;57879.81;5078365;27;45372;-70
2021/12/16 07:49:24;;;;;;;;;61.00;47.75;;;;;-146.25;100.00;57879.81;5077185;27;45522;-69
2021/12/16 07:51:50;;;;;;;;;33.25;30.75;;;;;-146.25;100.00;57879.81;5077999;27;45339;-69
2021/12/16 07:54:18;;;;;;;;;20.50;20.50;;;;;-146.25;100.00;57879.81;5078203;27;45462;-69
2021/12/16 07:56:45;;;;;;;;;23.25;20.50;;;;;-146.25;100.00;57879.81;5078603;27;45194;-69
2021/12/16 07:59:10;;;;;;;;;23.75;22.00;;;;;-146.25;100.00;57879.81;5077768;27;45484;-69
2021/12/16 08:01:38;;;;;;;;;63.75;49.25;;;;;-146.25;100.00;57879.81;5077990;27;45397;-69
2021/12/16 08:04:04;;;;;;;;;63.00;47.50;;;;;-146.25;100.00;57879.81;5077419;27;46505;-69
2021/12/16 08:06:32;;;;;;;;;104.67;82.33;;;;;-146.25;100.00;57879.81;5038196;27;45604;-68
2021/12/16 08:09:03;;;;;;;;;48.75;42.50;;;;;-146.25;100.00;57879.81;5062237;28;45523;-69
2021/12/16 08:11:34;;;;;;;;;31.25;30.75;;;;;-146.25;100.00;57879.81;5077346;27;45532;-70
2021/12/16 08:14:02;;;;;;;;;33.00;28.75;;;;;-146.25;100.00;57879.81;5076799;27;45529;-69
2021/12/16 08:16:28;;;;;;;;;59.25;50.00;;;;;-146.25;100.00;57879.81;5077448;28;45298;-70
2021/12/16 08:18:54;;;;;;;;;57.50;48.75;;;;;-146.25;100.00;57879.81;5076876;27;45354;-70
2021/12/16 08:21:21;;;;;;;;;43.25;38.25;;;;;-146.25;100.00;57879.81;5076426;28;45473;-70
2021/12/16 08:23:46;;;;;;;;;41.25;32.75;;;;;-146.25;100.00;57879.81;5074360;28;45420;-69
2021/12/16 08:26:15;;;;;;;;;41.50;37.25;;;;;-146.25;100.00;57879.81;5077196;27;45619;-69
2021/12/16 08:28:42;;;;;;;;;43.75;35.75;;;;;-146.25;100.00;57879.81;5074435;28;45329;-70
2021/12/16 08:31:10;;;;;;;;;38.75;37.50;;;;;-146.25;100.00;57879.81;5076336;28;45417;-69
2021/12/16 08:33:37;;;;;;;;;41.75;38.00;;;;;-146.25;100.00;57879.81;5077745;27;45514;-69
2021/12/16 08:36:04;;;;;;;;;45.00;39.50;;;;;-146.25;100.00;57879.81;5077629;28;45505;-70
2021/12/16 08:38:31;;;;;;;;;27.50;26.00;;;;;-146.25;100.00;57879.81;5074281;28;46410;-69
2021/12/16 08:41:05;;;;;;;;;22.50;22.50;;;;;-146.25;100.00;57879.81;5077561;28;45481;-69
2021/12/16 08:43:31;;;;;;;;;25.75;23.75;;;;;-146.25;100.00;57879.81;5075542;28;45393;-70
2021/12/16 08:45:57;;;;;;;;;21.00;18.00;;;;;-146.25;100.00;57879.81;5077772;28;45452;-70
2021/12/16 08:48:26;;;;;;;;;26.25;25.25;;;;;-146.25;100.00;57879.81;5076912;27;45455;-70
2021/12/16 08:50:52;;;;;;;;;27.25;25.25;;;;;-146.25;100.00;57879.81;5077605;27;45512;-70
2021/12/16 08:53:19;;;;;;;;;33.25;29.50;;;;;-146.25;100.00;57879.81;5078000;28;45365;-70
2021/12/16 08:55:47;;;;;;;;;47.50;40.50;;;;;-146.25;100.00;57879.81;5078398;27;45245;-70
2021/12/16 08:58:13;;;;;;;;;78.00;60.50;;;;;-146.25;100.00;57879.81;5078110;27;45520;-70
2021/12/16 09:00:43;;;;;;;;;71.75;55.75;;;;;-146.25;100.00;57879.81;5077879;27;45426;-70
2021/12/16 09:03:10;;;;;;;;;42.00;38.25;;;;;-146.25;100.00;57879.81;5077815;27;45401;-70
2021/12/16 09:05:36;;;;;;;;;36.00;31.50;;;;;-146.25;100.00;57879.81;5078027;27;45199;-69
2021/12/16 09:08:02;;;;;;;;;34.25;30.00;;;;;-146.25;100.00;57879.81;5077725;27;45458;-70
2021/12/16 09:10:31;;;;;;;;;62.25;43.75;;;;;-146.25;100.00;57879.81;5077927;27;45506;-70
2021/12/16 09:13:03;;;;;;;;;68.75;52.00;;;;;-146.25;100.00;57879.81;5078073;27;45253;-69
2021/12/16 09:15:42;;;;;;;;;60.25;47.75;;;;;-146.25;100.00;57879.81;5078097;28;45286;-70
2021/12/16 09:18:08;;;;;;;;;43.00;39.50;;;;;-146.25;100.00;57879.81;5077678;27;46145;-69
2021/12/16 09:20:35;;;;;;;;;43.75;39.00;;;;;-146.25;100.00;57879.81;5077713;27;45602;-69
2021/12/16 09:23:02;;;;;;;;;42.50;36.00;;;;;-146.25;100.00;57879.81;5077684;27;45207;-69
2021/12/16 09:25:28;;;;;;;;;47.25;39.00;;;;;-146.25;100.00;57879.81;5078007;27;45393;-68
2021/12/16 09:27:53;;;;;;;;;29.25;26.50;;;;;-146.25;100.00;57879.81;5077575;28;46093;-69
2021/12/16 09:30:22;;;;;;;;;55.00;44.25;;;;;-146.25;100.00;57879.81;5093530;27;45392;-69
2021/12/16 09:32:51;;;;;;;;;24.75;20.00;;;;;-146.25;100.00;57879.81;5077893;27;45422;-69
2021/12/16 09:35:19;;;;;;;;;40.75;32.75;;;;;-146.25;100.00;57879.81;5077758;28;45468;-70
2021/12/16 09:37:44;;;;;;;;;37.50;34.00;;;;;-146.25;100.00;57879.81;5077243;27;45262;-69
2021/12/16 09:40:18;;;;;;;;;38.50;33.25;;;;;-146.25;100.00;57879.81;5077192;28;45562;-70
2021/12/16 09:42:44;;;;;;;;;49.75;40.25;;;;;-146.25;100.00;57879.81;5077077;27;45458;-70
2021/12/16 09:45:10;;;;;;;;;46.75;38.75;;;;;-146.25;100.00;57879.81;5077331;28;45312;-70
2021/12/16 09:47:37;;;;;;;;;40.25;33.25;;;;;-146.25;100.00;57879.81;5077190;27;46081;-71
2021/12/16 09:50:06;;;;;;;;;36.00;32.50;;;;;-146.25;100.00;57879.81;5076915;27;45555;-70
2021/12/16 09:52:32;;;;;;;;;33.50;30.75;;;;;-146.25;100.00;57879.81;5077288;28;45382;-70
2021/12/16 09:54:58;;;;;;;;;34.25;31.00;;;;;-146.25;100.00;57879.81;5077142;27;45580;-70
2021/12/16 09:57:24;;;;;;;;;35.75;32.25;;;;;-146.25;100.00;57879.81;5076802;28;46535;-70
2021/12/16 09:59:50;;;;;;;;;31.75;31.25;;;;;-146.25;100.00;57879.81;5077363;27;45309;-70
2021/12/16 10:02:18;;;;;;;;;29.75;28.50;;;;;-146.25;100.00;57879.81;5077146;27;45425;-70
2021/12/16 10:04:45;;;;;;;;;28.75;26.50;;;;;-146.25;100.00;57879.81;5077092;28;45967;-70
2021/12/16 10:07:21;;;;;;;;;26.75;24.50;;;;;-146.25;100.00;57879.81;5076689;28;45481;-70
2021/12/16 10:09:49;;;;;;;;;23.00;22.33;;;;;-146.25;100.00;57879.81;5076975;27;45266;-70
2021/12/16 10:12:19;;;;;;;;;27.00;25.67;;;;;-146.25;100.00;57879.81;5076860;27;45239;-68
2021/12/16 10:15:02;;;;;;;;;43.75;36.75;;;;;-146.25;100.00;57879.81;5076948;28;45598;-68
2021/12/16 10:17:41;;;;;;;;;25.25;22.75;;;;;-146.25;100.00;57879.81;5076752;27;46088;-68
2021/12/16 10:20:20;;;;;;;;;63.50;51.75;;;;;-146.25;100.00;57879.81;5076768;27;45417;-69
2021/12/16 10:22:46;;;;;;;;;65.50;51.50;;;;;-146.25;100.00;57879.81;5080675;27;45297;-69
2021/12/16 10:25:30;;;;;;;;;31.25;30.00;;;;;-146.25;100.00;57879.81;5080655;27;45459;-69
2021/12/16 10:28:17;;;;;;;;;27.50;26.25;;;;;-146.25;100.00;57879.81;5080159;27;46406;-69
2021/12/16 10:31:09;;;;;;;;;19.33;18.33;;;;;-146.25;100.00;57879.81;5080343;27;45407;-69
2021/12/16 10:33:45;;;;;;;;;33.25;27.25;;;;;-146.25;100.00;57879.81;5080323;27;45491;-69
2021/12/16 10:36:23;;;;;;;;;23.00;21.00;;;;;-146.25;100.00;57879.81;5080436;27;45512;-69
2021/12/16 10:38:53;;;;;;;;;22.33;20.67;;;;;-146.25;100.00;57879.81;5080116;28;45267;-69
2021/12/16 10:41:29;;;;;;;;;19.25;19.25;;;;;-146.25;100.00;57879.81;5080214;27;45488;-69
2021/12/16 10:43:55;;;;;;;;;15.00;14.67;;;;;-146.25;100.00;57879.81;5080428;27;45317;-69
2021/12/16 10:46:26;;;;;;;;;17.67;17.67;;;;;-146.25;100.00;57879.81;5080828;27;45450;-69
2021/12/16 10:48:56;;;;;;;;;19.75;18.25;;;;;-146.25;100.00;57879.81;5080531;27;46059;-69
2021/12/16 10:51:22;;;;;;;;;18.00;17.00;;;;;-146.25;100.00;57879.81;5080414;27;45363;-69
2021/12/16 10:54:03;;;;;;;;;20.50;19.00;;;;;-146.25;100.00;57879.81;5079931;27;45220;-69
2021/12/16 10:57:04;;;;;;;;;15.33;14.33;;;;;-146.25;100.00;57879.81;5080169;28;45451;-69
2021/12/16 10:59:39;;;;;;;;;13.00;13.00;;;;;-146.25;100.00;57879.81;5079636;27;46350;-69
2021/12/16 11:02:05;;;;;;;;;7.00;7.00;;;;;-146.25;100.00;57879.81;5079804;27;45661;-69
2021/12/16 11:04:30;;;;;;;;;14.00;13.00;;;;;-146.25;100.00;57879.81;5080057;27;45308;-69
2021/12/16 11:07:08;;;;;;;;;9.00;9.00;;;;;-146.25;100.00;57879.81;5080197;28;45226;-69
2021/12/16 11:09:36;;;;;;;;;9.00;9.00;;;;;-146.25;100.00;57879.81;5079806;28;45487;-69
2021/12/16 11:12:23;;;;;;;;;16.33;13.67;;;;;-146.25;100.00;57879.81;5079615;27;45410;-69
2021/12/16 11:14:54;;;;;;;;;13.50;13.00;;;;;-146.25;100.00;57879.81;5095363;27;45254;-69
2021/12/16 11:17:22;;;;;;;;;17.25;13.25;;;;;-146.25;100.00;57879.81;5080015;27;45452;-69
2021/12/16 11:19:53;;;;;;;;;12.00;12.00;;;;;-146.25;100.00;57879.81;5079591;27;45521;-69
2021/12/16 11:22:24;;;;;;;;;13.67;12.33;;;;;-146.25;100.00;57879.81;5079618;28;45455;-69
2021/12/16 11:24:52;;;;;;;;;16.25;13.75;;;;;-146.25;100.00;57879.81;5079577;27;45282;-69
2021/12/16 11:27:35;;;;;;;;;16.00;13.33;;;;;-146.25;100.00;57879.81;5079691;27;45702;-69
2021/12/16 11:30:26;;;;;;;;;12.50;12.50;;;;;-146.25;100.00;57879.81;5079312;28;46178;-69
2021/12/16 11:32:54;;;;;;;;;15.00;12.67;;;;;-146.25;100.00;57879.81;5078048;27;45561;-68
2021/12/16 11:35:23;;;;;;;;;23.50;22.00;;;;;-146.25;100.00;57879.81;5077991;28;45498;-69
2021/12/16 11:37:50;;;;;;;;;25.75;23.75;;;;;-146.25;100.00;57879.81;5079641;28;45474;-69
2021/12/16 11:40:16;;;;;;;;;22.75;21.00;;;;;-146.25;100.00;57879.81;5079140;27;45311;-69
2021/12/16 11:42:42;;;;;;;;;21.75;19.50;;;;;-146.25;100.00;57879.81;5078154;28;45652;-69
2021/12/16 11:45:08;;;;;;;;;20.25;18.50;;;;;-146.25;100.00;57879.81;5079221;28;45475;-69
2021/12/16 11:47:33;;;;;;;;;75.75;61.00;;;;;-146.25;100.00;57879.81;5079119;28;45350;-68
2021/12/16 11:50:04;;;;;;;;;42.25;34.00;;;;;-146.25;100.00;57879.81;5079009;27;45480;-68
2021/12/16 11:52:35;;;;;;;;;22.50;20.25;;;;;-146.25;100.00;57879.81;5078799;27;45484;-69
2021/12/16 11:55:14;;;;;;;;;22.50;20.00;;;;;-146.25;100.00;57879.81;5078451;27;45440;-68
2021/12/16 11:57:43;;;;;;;;;19.75;19.75;;;;;-146.25;100.00;57879.81;5079138;27;45541;-69
2021/12/16 12:00:13;;;;;;;;;21.00;21.00;;;;;-146.25;100.00;57879.81;5078962;27;46262;-68
2021/12/16 12:02:45;;;;;;;;;16.25;16.00;;;;;-146.25;100.00;57879.81;5078949;27;45433;-68
2021/12/16 12:05:34;;;;;;;;;22.25;19.00;;;;;-146.25;100.00;57879.81;5078899;27;45319;-68
2021/12/16 12:08:12;;;;;;;;;18.50;18.00;;;;;-146.25;100.00;57879.81;5079167;28;45389;-70
2021/12/16 12:10:48;;;;;;;;;54.50;45.75;;;;;-146.25;100.00;57879.81;5078596;27;46207;-69
2021/12/16 12:13:16;;;;;;;;;50.50;41.00;;;;;-146.25;100.00;57879.81;5078790;27;45496;-70
2021/12/16 12:16:03;;;;;;;;;57.50;48.50;;;;;-146.25;100.00;57879.81;5078712;27;46285;-70
2021/12/16 12:18:42;;;;;;;;;51.00;42.25;;;;;-146.25;100.00;57879.81;5080022;27;45285;-70
2021/12/16 12:21:20;;;;;;;;;14.00;13.00;;;;;-146.25;100.00;57879.81;5078866;27;46316;-70
2021/12/16 12:23:49;;;;;;;;;18.00;17.50;;;;;-146.25;100.00;57879.81;5078826;27;45247;-70
2021/12/16 12:26:16;;;;;;;;;21.25;20.75;;;;;-146.25;100.00;57879.81;5078631;27;45523;-70
2021/12/16 12:28:59;;;;;;;;;20.25;17.50;;;;;-146.25;100.00;57879.81;5078817;27;45487;-70
2021/12/16 12:31:28;;;;;;;;;60.50;49.25;;;;;-146.25;100.00;57879.81;5078151;27;45490;-69
2021/12/16 12:33:54;;;;;;;;;42.00;35.50;;;;;-146.25;100.00;57879.81;5077757;28;45312;-69
2021/12/16 12:36:22;;;;;;;;;15.00;15.00;;;;;-146.25;100.00;57879.81;5078135;27;45533;-70
2021/12/16 12:38:48;;;;;;;;;18.75;16.75;;;;;-146.25;100.00;57879.81;5077092;28;45533;-70
2021/12/16 12:41:14;;;;;;;;;20.50;19.25;;;;;-146.25;100.00;57879.81;5078178;27;46211;-70
2021/12/16 12:43:40;;;;;;;;;18.25;17.75;;;;;-146.25;100.00;57879.81;5077909;27;45378;-70
2021/12/16 12:46:07;;;;;;;;;17.00;16.25;;;;;-146.25;100.00;57879.81;5078204;28;45499;-70
2021/12/16 12:48:36;;;;;;;;;27.25;25.00;;;;;-146.25;100.00;57879.81;5078575;27;45342;-70
2021/12/16 12:51:04;;;;;;;;;25.50;24.00;;;;;-146.25;100.00;57879.81;5077984;28;46313;-70
2021/12/16 12:53:48;;;;;;;;;18.00;17.00;;;;;-146.25;100.00;57879.81;5078415;27;45301;-70
2021/12/16 12:56:30;;;;;;;;;16.25;15.25;;;;;-146.25;100.00;57879.81;5078240;28;45309;-70
2021/12/16 12:59:04;;;;;;;;;20.00;18.00;;;;;-146.25;100.00;57879.81;5078263;28;45231;-70
2021/12/16 13:01:42;;;;;;;;;17.25;16.00;;;;;-146.25;100.00;57879.81;5078202;28;45336;-70
2021/12/16 13:04:15;;;;;;;;;17.00;16.25;;;;;-146.25;100.00;57879.81;5078027;28;45306;-70
2021/12/16 13:06:55;;;;;;;;;16.75;14.25;;;;;-146.25;100.00;57879.81;5080937;27;45357;-70
2021/12/16 13:09:27;;;;;;;;;13.75;12.25;;;;;-146.25;100.00;57879.81;5081131;27;45293;-70
2021/12/16 13:11:53;;;;;;;;;15.25;13.00;;;;;-146.25;100.00;57879.81;5077953;27;45970;-70
2021/12/16 13:14:36;;;;;;;;;17.25;15.25;;;;;-146.25;100.00;57879.81;5077580;27;45308;-70
2021/12/16 13:23:18;;;;;;;;;18.25;17.00;;;;;-146.25;100.00;57879.81;5078138;27;45336;-70
2021/12/16 13:28:33;;;;;;;;;21.75;20.00;;;;;-146.25;100.00;57879.81;5077633;28;45251;-70
2021/12/16 13:31:04;;;;;;;;;19.75;18.50;;;;;-146.25;100.00;57879.81;5077984;27;45413;-70
2021/12/16 13:33:54;;;;;;;;;21.00;19.50;;;;;-146.25;100.00;57879.81;5077480;28;46020;-70
2021/12/16 13:36:40;;;;;;;;;18.00;17.75;;;;;-146.25;100.00;57879.81;5077356;27;45262;-69
2021/12/16 13:39:27;;;;;;;;;18.25;17.75;;;;;-146.25;100.00;57879.81;5077489;27;45340;-70
2021/12/16 13:42:06;;;;;;;;;27.50;27.25;;;;;-146.25;100.00;57879.81;5077609;27;45513;-69
2021/12/16 13:44:54;;;;;;;;;29.50;27.00;;;;;-146.25;100.00;57879.81;5077651;27;45491;-70
2021/12/16 13:47:43;;;;;;;;;20.75;18.75;;;;;-146.25;100.00;57879.81;5077360;27;45297;-70
2021/12/16 14:02:15;;;;;;;;;16.25;14.50;;;;;-146.25;100.00;57879.81;5077485;27;46204;-70
2021/12/16 14:10:44;;;;;;;;;15.00;15.00;;;;;-146.25;100.00;57879.81;5076926;28;45242;-70